sensor_id;sensor_type;location;lat;lon;timestamp;P1;durP1;ratioP1;P2;durP2;ratioP2
55756;SDS011;41676;44.610;44.078;2023-05-07T00:02:59;5.57;;;2.00;;
55756;SDS011;41676;44.610;44.078;2023-05-07T00:08:00;6.72;;;1.67;;
55756;SDS011;41676;44.610;44.078;2023-05-07T00:13:01;11.32;;;2.50;;
55756;SDS011;41676;44.610;44.078;2023-05-07T00:18:01;9.00;;;1.90;;
55756;SDS011;41676;44.610;44.078;2023-05-07T00:23:02;10.20;;;2.28;;
55756;SDS011;41676;44.610;44.078;2023-05-07T00:28:03;8.77;;;2.00;;
55756;SDS011;41676;44.610;44.078;2023-05-07T00:33:04;8.50;;;2.10;;
55756;SDS011;41676;44.610;44.078;2023-05-07T00:38:05;6.72;;;2.20;;
55756;SDS011;41676;44.610;44.078;2023-05-07T00:43:06;7.15;;;1.90;;
55756;SDS011;41676;44.610;44.078;2023-05-07T00:48:06;7.00;;;1.90;;
55756;SDS011;41676;44.610;44.078;2023-05-07T00:53:07;9.30;;;2.10;;
55756;SDS011;41676;44.610;44.078;2023-05-07T00:58:09;9.27;;;1.95;;
55756;SDS011;41676;44.610;44.078;2023-05-07T01:03:09;8.30;;;2.22;;
55756;SDS011;41676;44.610;44.078;2023-05-07T01:08:10;9.90;;;2.08;;
55756;SDS011;41676;44.610;44.078;2023-05-07T01:13:12;11.07;;;2.30;;
55756;SDS011;41676;44.610;44.078;2023-05-07T01:18:14;13.25;;;2.50;;
55756;SDS011;41676;44.610;44.078;2023-05-07T01:23:15;13.07;;;2.17;;
55756;SDS011;41676;44.610;44.078;2023-05-07T01:28:17;10.30;;;2.17;;
55756;SDS011;41676;44.610;44.078;2023-05-07T01:33:19;14.00;;;2.67;;
55756;SDS011;41676;44.610;44.078;2023-05-07T01:38:22;7.10;;;2.00;;
55756;SDS011;41676;44.610;44.078;2023-05-07T01:59:23;17.38;;;3.33;;
55756;SDS011;41676;44.610;44.078;2023-05-07T02:04:24;12.52;;;2.53;;
55756;SDS011;41676;44.610;44.078;2023-05-07T02:09:25;8.45;;;2.85;;
55756;SDS011;41676;44.610;44.078;2023-05-07T02:14:25;13.93;;;2.53;;
55756;SDS011;41676;44.610;44.078;2023-05-07T02:19:26;38.13;;;4.10;;
55756;SDS011;41676;44.610;44.078;2023-05-07T02:24:27;20.23;;;2.95;;
55756;SDS011;41676;44.610;44.078;2023-05-07T02:29:28;45.97;;;9.07;;
55756;SDS011;41676;44.610;44.078;2023-05-07T02:34:28;42.28;;;14.13;;
55756;SDS011;41676;44.610;44.078;2023-05-07T02:39:29;98.43;;;47.72;;
55756;SDS011;41676;44.610;44.078;2023-05-07T02:44:30;82.30;;;31.05;;
55756;SDS011;41676;44.610;44.078;2023-05-07T02:49:31;31.80;;;14.45;;
55756;SDS011;41676;44.610;44.078;2023-05-07T02:54:32;23.85;;;6.40;;
55756;SDS011;41676;44.610;44.078;2023-05-07T02:59:33;44.28;;;11.95;;
55756;SDS011;41676;44.610;44.078;2023-05-07T03:04:33;15.48;;;4.15;;
55756;SDS011;41676;44.610;44.078;2023-05-07T03:09:34;11.40;;;3.05;;
55756;SDS011;41676;44.610;44.078;2023-05-07T03:14:35;11.52;;;3.00;;
55756;SDS011;41676;44.610;44.078;2023-05-07T03:19:36;29.98;;;8.98;;
55756;SDS011;41676;44.610;44.078;2023-05-07T03:24:36;18.60;;;7.25;;
55756;SDS011;41676;44.610;44.078;2023-05-07T03:29:37;22.33;;;8.20;;
55756;SDS011;41676;44.610;44.078;2023-05-07T03:34:38;22.42;;;11.90;;
55756;SDS011;41676;44.610;44.078;2023-05-07T03:39:39;33.05;;;17.92;;
55756;SDS011;41676;44.610;44.078;2023-05-07T03:44:40;33.42;;;16.30;;
55756;SDS011;41676;44.610;44.078;2023-05-07T03:49:40;23.23;;;15.82;;
55756;SDS011;41676;44.610;44.078;2023-05-07T03:54:41;20.55;;;11.90;;
55756;SDS011;41676;44.610;44.078;2023-05-07T03:59:42;13.57;;;3.55;;
55756;SDS011;41676;44.610;44.078;2023-05-07T04:04:43;11.90;;;2.22;;
55756;SDS011;41676;44.610;44.078;2023-05-07T04:09:43;16.23;;;2.10;;
55756;SDS011;41676;44.610;44.078;2023-05-07T04:14:44;10.18;;;2.40;;
55756;SDS011;41676;44.610;44.078;2023-05-07T04:19:45;5.07;;;2.05;;
55756;SDS011;41676;44.610;44.078;2023-05-07T04:24:46;13.50;;;2.20;;
55756;SDS011;41676;44.610;44.078;2023-05-07T04:29:47;9.35;;;2.13;;
55756;SDS011;41676;44.610;44.078;2023-05-07T04:34:48;12.85;;;2.45;;
55756;SDS011;41676;44.610;44.078;2023-05-07T04:39:49;8.23;;;3.28;;
55756;SDS011;41676;44.610;44.078;2023-05-07T04:44:52;10.82;;;2.75;;
55756;SDS011;41676;44.610;44.078;2023-05-07T04:49:53;11.63;;;2.58;;
55756;SDS011;41676;44.610;44.078;2023-05-07T04:54:54;13.32;;;3.92;;
55756;SDS011;41676;44.610;44.078;2023-05-07T04:59:56;16.35;;;5.85;;
55756;SDS011;41676;44.610;44.078;2023-05-07T05:04:57;8.45;;;2.85;;
55756;SDS011;41676;44.610;44.078;2023-05-07T05:09:59;10.98;;;3.00;;
55756;SDS011;41676;44.610;44.078;2023-05-07T05:15:00;10.48;;;3.25;;
55756;SDS011;41676;44.610;44.078;2023-05-07T05:20:00;13.80;;;2.65;;
55756;SDS011;41676;44.610;44.078;2023-05-07T05:25:01;8.52;;;3.33;;
55756;SDS011;41676;44.610;44.078;2023-05-07T05:30:03;19.77;;;4.80;;
55756;SDS011;41676;44.610;44.078;2023-05-07T05:35:04;10.65;;;4.00;;
55756;SDS011;41676;44.610;44.078;2023-05-07T05:40:06;15.80;;;3.08;;
55756;SDS011;41676;44.610;44.078;2023-05-07T05:45:07;13.05;;;3.55;;
55756;SDS011;41676;44.610;44.078;2023-05-07T05:50:08;23.65;;;5.95;;
55756;SDS011;41676;44.610;44.078;2023-05-07T05:55:09;11.15;;;3.40;;
55756;SDS011;41676;44.610;44.078;2023-05-07T06:00:10;11.45;;;3.78;;
55756;SDS011;41676;44.610;44.078;2023-05-07T06:05:12;13.15;;;4.25;;
55756;SDS011;41676;44.610;44.078;2023-05-07T06:10:12;11.30;;;3.97;;
55756;SDS011;41676;44.610;44.078;2023-05-07T06:15:13;10.00;;;4.50;;
55756;SDS011;41676;44.610;44.078;2023-05-07T06:20:14;17.20;;;6.68;;
55756;SDS011;41676;44.610;44.078;2023-05-07T06:25:15;18.88;;;4.70;;
55756;SDS011;41676;44.610;44.078;2023-05-07T06:30:16;16.92;;;5.07;;
55756;SDS011;41676;44.610;44.078;2023-05-07T06:35:17;7.22;;;4.90;;
55756;SDS011;41676;44.610;44.078;2023-05-07T06:40:18;23.67;;;13.25;;
55756;SDS011;41676;44.610;44.078;2023-05-07T06:45:19;24.33;;;12.00;;
55756;SDS011;41676;44.610;44.078;2023-05-07T06:50:20;14.35;;;7.15;;
55756;SDS011;41676;44.610;44.078;2023-05-07T06:55:21;11.60;;;5.20;;
55756;SDS011;41676;44.610;44.078;2023-05-07T07:00:22;21.17;;;6.00;;
55756;SDS011;41676;44.610;44.078;2023-05-07T07:05:23;19.92;;;7.18;;
55756;SDS011;41676;44.610;44.078;2023-05-07T07:10:23;14.57;;;5.10;;
55756;SDS011;41676;44.610;44.078;2023-05-07T07:15:25;16.70;;;4.65;;
55756;SDS011;41676;44.610;44.078;2023-05-07T07:20:26;11.18;;;3.38;;
55756;SDS011;41676;44.610;44.078;2023-05-07T07:25:27;8.88;;;3.00;;
55756;SDS011;41676;44.610;44.078;2023-05-07T07:30:28;9.65;;;3.22;;
55756;SDS011;41676;44.610;44.078;2023-05-07T07:35:29;10.00;;;3.47;;
55756;SDS011;41676;44.610;44.078;2023-05-07T07:40:30;19.02;;;4.15;;
55756;SDS011;41676;44.610;44.078;2023-05-07T07:45:31;11.65;;;3.45;;
55756;SDS011;41676;44.610;44.078;2023-05-07T07:50:32;13.57;;;3.97;;
55756;SDS011;41676;44.610;44.078;2023-05-07T07:55:32;13.45;;;3.80;;
55756;SDS011;41676;44.610;44.078;2023-05-07T08:00:38;9.60;;;3.25;;
55756;SDS011;41676;44.610;44.078;2023-05-07T08:05:39;21.42;;;3.75;;
55756;SDS011;41676;44.610;44.078;2023-05-07T08:10:40;12.32;;;2.72;;
55756;SDS011;41676;44.610;44.078;2023-05-07T08:15:41;13.38;;;3.95;;
55756;SDS011;41676;44.610;44.078;2023-05-07T08:20:41;9.57;;;3.67;;
55756;SDS011;41676;44.610;44.078;2023-05-07T08:25:42;15.52;;;3.85;;
55756;SDS011;41676;44.610;44.078;2023-05-07T08:30:43;15.55;;;3.25;;
55756;SDS011;41676;44.610;44.078;2023-05-07T08:35:44;10.55;;;2.90;;
55756;SDS011;41676;44.610;44.078;2023-05-07T08:40:44;17.48;;;3.53;;
55756;SDS011;41676;44.610;44.078;2023-05-07T08:45:45;11.82;;;2.70;;
55756;SDS011;41676;44.610;44.078;2023-05-07T08:50:53;9.48;;;2.50;;
55756;SDS011;41676;44.610;44.078;2023-05-07T08:55:54;14.15;;;2.90;;
55756;SDS011;41676;44.610;44.078;2023-05-07T09:00:55;10.18;;;2.25;;
55756;SDS011;41676;44.610;44.078;2023-05-07T09:05:56;9.07;;;2.85;;
55756;SDS011;41676;44.610;44.078;2023-05-07T09:10:57;7.47;;;2.00;;
55756;SDS011;41676;44.610;44.078;2023-05-07T09:15:59;15.38;;;2.20;;
55756;SDS011;41676;44.610;44.078;2023-05-07T09:21:11;11.80;;;1.57;;
55756;SDS011;41676;44.610;44.078;2023-05-07T09:26:15;13.15;;;2.35;;
55756;SDS011;41676;44.610;44.078;2023-05-07T09:31:16;12.43;;;1.92;;
55756;SDS011;41676;44.610;44.078;2023-05-07T09:36:17;9.38;;;1.90;;
55756;SDS011;41676;44.610;44.078;2023-05-07T09:41:18;9.88;;;2.20;;
55756;SDS011;41676;44.610;44.078;2023-05-07T09:46:19;13.48;;;2.28;;
55756;SDS011;41676;44.610;44.078;2023-05-07T09:51:41;14.07;;;2.63;;
55756;SDS011;41676;44.610;44.078;2023-05-07T09:56:46;6.25;;;1.63;;
55756;SDS011;41676;44.610;44.078;2023-05-07T10:01:49;10.23;;;1.93;;
55756;SDS011;41676;44.610;44.078;2023-05-07T10:06:52;13.52;;;4.45;;
55756;SDS011;41676;44.610;44.078;2023-05-07T10:11:53;19.25;;;3.55;;
55756;SDS011;41676;44.610;44.078;2023-05-07T10:16:55;15.35;;;2.90;;
55756;SDS011;41676;44.610;44.078;2023-05-07T10:21:59;23.20;;;2.75;;
55756;SDS011;41676;44.610;44.078;2023-05-07T10:27:10;10.82;;;2.65;;
55756;SDS011;41676;44.610;44.078;2023-05-07T10:37:33;11.30;;;2.38;;
55756;SDS011;41676;44.610;44.078;2023-05-07T10:42:34;9.88;;;1.90;;
55756;SDS011;41676;44.610;44.078;2023-05-07T10:47:35;12.90;;;2.15;;
55756;SDS011;41676;44.610;44.078;2023-05-07T10:52:36;10.57;;;1.73;;
55756;SDS011;41676;44.610;44.078;2023-05-07T10:57:37;13.55;;;1.85;;
55756;SDS011;41676;44.610;44.078;2023-05-07T11:08:01;20.92;;;2.40;;
55756;SDS011;41676;44.610;44.078;2023-05-07T11:13:03;18.15;;;2.53;;
55756;SDS011;41676;44.610;44.078;2023-05-07T11:18:03;7.18;;;1.67;;
55756;SDS011;41676;44.610;44.078;2023-05-07T11:23:05;12.50;;;1.77;;
55756;SDS011;41676;44.610;44.078;2023-05-07T11:28:08;19.58;;;2.17;;
55756;SDS011;41676;44.610;44.078;2023-05-07T11:33:10;15.65;;;4.05;;
55756;SDS011;41676;44.610;44.078;2023-05-07T11:38:12;10.30;;;2.08;;
55756;SDS011;41676;44.610;44.078;2023-05-07T11:43:13;16.73;;;4.65;;
55756;SDS011;41676;44.610;44.078;2023-05-07T11:48:14;14.77;;;2.53;;
55756;SDS011;41676;44.610;44.078;2023-05-07T11:53:16;13.90;;;3.00;;
55756;SDS011;41676;44.610;44.078;2023-05-07T11:58:20;12.80;;;2.55;;
55756;SDS011;41676;44.610;44.078;2023-05-07T12:03:22;21.88;;;3.22;;
55756;SDS011;41676;44.610;44.078;2023-05-07T12:08:22;26.17;;;2.80;;
55756;SDS011;41676;44.610;44.078;2023-05-07T12:13:24;25.55;;;3.58;;
55756;SDS011;41676;44.610;44.078;2023-05-07T12:18:26;18.88;;;2.45;;
55756;SDS011;41676;44.610;44.078;2023-05-07T12:23:27;20.58;;;3.22;;
55756;SDS011;41676;44.610;44.078;2023-05-07T12:28:29;29.25;;;4.93;;
55756;SDS011;41676;44.610;44.078;2023-05-07T12:33:30;25.08;;;2.97;;
55756;SDS011;41676;44.610;44.078;2023-05-07T12:38:36;35.28;;;3.85;;
55756;SDS011;41676;44.610;44.078;2023-05-07T12:43:43;33.72;;;4.55;;
55756;SDS011;41676;44.610;44.078;2023-05-07T12:48:46;26.63;;;3.95;;
55756;SDS011;41676;44.610;44.078;2023-05-07T12:53:47;21.20;;;3.92;;
55756;SDS011;41676;44.610;44.078;2023-05-07T12:58:48;26.75;;;3.97;;
55756;SDS011;41676;44.610;44.078;2023-05-07T13:03:55;27.20;;;4.88;;
55756;SDS011;41676;44.610;44.078;2023-05-07T13:08:56;25.25;;;4.07;;
55756;SDS011;41676;44.610;44.078;2023-05-07T13:13:59;21.45;;;3.75;;
55756;SDS011;41676;44.610;44.078;2023-05-07T13:19:05;35.35;;;5.35;;
55756;SDS011;41676;44.610;44.078;2023-05-07T13:24:06;21.67;;;4.45;;
55756;SDS011;41676;44.610;44.078;2023-05-07T13:29:07;42.42;;;5.32;;
55756;SDS011;41676;44.610;44.078;2023-05-07T13:34:08;35.13;;;5.13;;
55756;SDS011;41676;44.610;44.078;2023-05-07T13:39:09;31.65;;;4.40;;
55756;SDS011;41676;44.610;44.078;2023-05-07T13:44:10;44.30;;;5.50;;
55756;SDS011;41676;44.610;44.078;2023-05-07T13:49:11;26.85;;;4.05;;
55756;SDS011;41676;44.610;44.078;2023-05-07T13:54:13;41.55;;;5.25;;
55756;SDS011;41676;44.610;44.078;2023-05-07T13:59:13;35.70;;;4.93;;
55756;SDS011;41676;44.610;44.078;2023-05-07T14:04:14;24.70;;;4.63;;
55756;SDS011;41676;44.610;44.078;2023-05-07T14:09:15;39.20;;;4.95;;
55756;SDS011;41676;44.610;44.078;2023-05-07T14:14:16;34.15;;;4.45;;
55756;SDS011;41676;44.610;44.078;2023-05-07T14:19:17;23.65;;;3.50;;
55756;SDS011;41676;44.610;44.078;2023-05-07T14:24:18;21.73;;;4.25;;
55756;SDS011;41676;44.610;44.078;2023-05-07T14:29:19;26.63;;;4.13;;
55756;SDS011;41676;44.610;44.078;2023-05-07T14:34:20;27.30;;;4.40;;
55756;SDS011;41676;44.610;44.078;2023-05-07T14:39:20;25.80;;;3.92;;
55756;SDS011;41676;44.610;44.078;2023-05-07T14:44:21;25.63;;;3.65;;
55756;SDS011;41676;44.610;44.078;2023-05-07T14:49:22;15.55;;;3.45;;
55756;SDS011;41676;44.610;44.078;2023-05-07T14:54:23;18.77;;;2.85;;
55756;SDS011;41676;44.610;44.078;2023-05-07T14:59:24;26.58;;;3.08;;
55756;SDS011;41676;44.610;44.078;2023-05-07T15:04:25;18.00;;;3.67;;
55756;SDS011;41676;44.610;44.078;2023-05-07T15:09:26;19.38;;;3.28;;
55756;SDS011;41676;44.610;44.078;2023-05-07T15:14:27;24.75;;;3.97;;
55756;SDS011;41676;44.610;44.078;2023-05-07T15:19:27;21.52;;;2.67;;
55756;SDS011;41676;44.610;44.078;2023-05-07T15:24:29;15.77;;;3.53;;
55756;SDS011;41676;44.610;44.078;2023-05-07T15:29:31;25.83;;;3.55;;
55756;SDS011;41676;44.610;44.078;2023-05-07T15:34:32;22.33;;;3.85;;
55756;SDS011;41676;44.610;44.078;2023-05-07T15:39:33;30.73;;;4.13;;
55756;SDS011;41676;44.610;44.078;2023-05-07T15:44:34;17.90;;;2.83;;
55756;SDS011;41676;44.610;44.078;2023-05-07T15:49:35;15.93;;;2.95;;
55756;SDS011;41676;44.610;44.078;2023-05-07T15:54:36;19.42;;;3.20;;
55756;SDS011;41676;44.610;44.078;2023-05-07T15:59:40;19.17;;;2.95;;
55756;SDS011;41676;44.610;44.078;2023-05-07T16:04:41;24.70;;;3.30;;
55756;SDS011;41676;44.610;44.078;2023-05-07T16:09:42;21.70;;;2.92;;
55756;SDS011;41676;44.610;44.078;2023-05-07T16:14:42;15.50;;;3.35;;
55756;SDS011;41676;44.610;44.078;2023-05-07T16:19:43;22.15;;;4.25;;
55756;SDS011;41676;44.610;44.078;2023-05-07T16:24:44;42.40;;;5.18;;
55756;SDS011;41676;44.610;44.078;2023-05-07T16:29:45;59.20;;;6.95;;
55756;SDS011;41676;44.610;44.078;2023-05-07T16:34:46;70.97;;;7.45;;
55756;SDS011;41676;44.610;44.078;2023-05-07T16:39:46;40.17;;;5.03;;
55756;SDS011;41676;44.610;44.078;2023-05-07T16:44:47;25.38;;;4.63;;
55756;SDS011;41676;44.610;44.078;2023-05-07T16:49:48;25.17;;;3.30;;
55756;SDS011;41676;44.610;44.078;2023-05-07T16:54:49;13.98;;;3.42;;
55756;SDS011;41676;44.610;44.078;2023-05-07T16:59:51;17.13;;;2.20;;
55756;SDS011;41676;44.610;44.078;2023-05-07T17:04:52;10.82;;;2.55;;
55756;SDS011;41676;44.610;44.078;2023-05-07T17:09:53;16.90;;;2.55;;
55756;SDS011;41676;44.610;44.078;2023-05-07T17:14:53;14.00;;;2.72;;
55756;SDS011;41676;44.610;44.078;2023-05-07T17:19:54;19.33;;;2.53;;
55756;SDS011;41676;44.610;44.078;2023-05-07T17:24:56;16.80;;;2.28;;
55756;SDS011;41676;44.610;44.078;2023-05-07T17:29:57;23.92;;;2.92;;
55756;SDS011;41676;44.610;44.078;2023-05-07T17:34:58;14.55;;;2.15;;
55756;SDS011;41676;44.610;44.078;2023-05-07T17:40:00;17.08;;;2.25;;
55756;SDS011;41676;44.610;44.078;2023-05-07T17:45:01;15.13;;;2.22;;
55756;SDS011;41676;44.610;44.078;2023-05-07T17:50:01;22.10;;;2.00;;
55756;SDS011;41676;44.610;44.078;2023-05-07T17:55:05;10.50;;;2.17;;
55756;SDS011;41676;44.610;44.078;2023-05-07T18:00:07;13.27;;;2.40;;
55756;SDS011;41676;44.610;44.078;2023-05-07T18:05:09;7.93;;;2.30;;
55756;SDS011;41676;44.610;44.078;2023-05-07T18:10:10;11.73;;;2.05;;
55756;SDS011;41676;44.610;44.078;2023-05-07T18:15:11;16.27;;;1.95;;
55756;SDS011;41676;44.610;44.078;2023-05-07T18:20:11;20.65;;;2.45;;
55756;SDS011;41676;44.610;44.078;2023-05-07T18:25:12;10.07;;;2.22;;
55756;SDS011;41676;44.610;44.078;2023-05-07T18:30:13;6.88;;;1.63;;
55756;SDS011;41676;44.610;44.078;2023-05-07T18:35:14;12.40;;;1.90;;
55756;SDS011;41676;44.610;44.078;2023-05-07T18:40:16;11.70;;;1.90;;
55756;SDS011;41676;44.610;44.078;2023-05-07T18:45:17;13.23;;;2.78;;
55756;SDS011;41676;44.610;44.078;2023-05-07T18:50:18;18.77;;;2.65;;
55756;SDS011;41676;44.610;44.078;2023-05-07T18:55:19;11.63;;;2.45;;
55756;SDS011;41676;44.610;44.078;2023-05-07T19:00:21;12.68;;;2.58;;
55756;SDS011;41676;44.610;44.078;2023-05-07T19:05:22;14.75;;;3.38;;
55756;SDS011;41676;44.610;44.078;2023-05-07T19:10:23;14.25;;;2.95;;
55756;SDS011;41676;44.610;44.078;2023-05-07T19:15:24;13.98;;;2.70;;
55756;SDS011;41676;44.610;44.078;2023-05-07T19:20:26;19.20;;;3.08;;
55756;SDS011;41676;44.610;44.078;2023-05-07T19:25:27;14.63;;;2.40;;
55756;SDS011;41676;44.610;44.078;2023-05-07T19:30:28;10.18;;;1.52;;
55756;SDS011;41676;44.610;44.078;2023-05-07T19:35:28;8.80;;;2.35;;
55756;SDS011;41676;44.610;44.078;2023-05-07T19:40:30;18.27;;;2.92;;
55756;SDS011;41676;44.610;44.078;2023-05-07T19:45:31;14.23;;;2.63;;
55756;SDS011;41676;44.610;44.078;2023-05-07T19:50:33;13.98;;;3.10;;
55756;SDS011;41676;44.610;44.078;2023-05-07T19:55:33;15.75;;;2.25;;
55756;SDS011;41676;44.610;44.078;2023-05-07T20:00:35;12.75;;;2.10;;
55756;SDS011;41676;44.610;44.078;2023-05-07T20:05:35;7.25;;;1.98;;
55756;SDS011;41676;44.610;44.078;2023-05-07T20:10:36;15.77;;;2.17;;
55756;SDS011;41676;44.610;44.078;2023-05-07T20:15:37;18.65;;;2.40;;
55756;SDS011;41676;44.610;44.078;2023-05-07T20:20:38;14.02;;;2.13;;
55756;SDS011;41676;44.610;44.078;2023-05-07T20:25:39;11.65;;;1.90;;
55756;SDS011;41676;44.610;44.078;2023-05-07T20:30:42;9.38;;;2.33;;
55756;SDS011;41676;44.610;44.078;2023-05-07T20:35:43;15.00;;;2.08;;
55756;SDS011;41676;44.610;44.078;2023-05-07T20:40:44;15.30;;;2.00;;
55756;SDS011;41676;44.610;44.078;2023-05-07T20:45:45;12.25;;;2.88;;
55756;SDS011;41676;44.610;44.078;2023-05-07T20:50:45;13.00;;;2.03;;
55756;SDS011;41676;44.610;44.078;2023-05-07T20:55:46;11.27;;;2.33;;
55756;SDS011;41676;44.610;44.078;2023-05-07T21:00:47;11.00;;;2.03;;
55756;SDS011;41676;44.610;44.078;2023-05-07T21:05:51;8.65;;;2.03;;
55756;SDS011;41676;44.610;44.078;2023-05-07T21:10:53;12.13;;;2.35;;
55756;SDS011;41676;44.610;44.078;2023-05-07T21:15:54;9.75;;;2.05;;
55756;SDS011;41676;44.610;44.078;2023-05-07T21:20:55;9.55;;;1.98;;
55756;SDS011;41676;44.610;44.078;2023-05-07T21:25:56;14.73;;;2.50;;
55756;SDS011;41676;44.610;44.078;2023-05-07T21:30:57;13.48;;;2.05;;
55756;SDS011;41676;44.610;44.078;2023-05-07T21:35:58;11.07;;;2.30;;
55756;SDS011;41676;44.610;44.078;2023-05-07T21:40:59;10.50;;;2.17;;
55756;SDS011;41676;44.610;44.078;2023-05-07T21:45:59;5.20;;;2.10;;
55756;SDS011;41676;44.610;44.078;2023-05-07T21:51:03;13.75;;;1.95;;
55756;SDS011;41676;44.610;44.078;2023-05-07T21:56:05;5.32;;;1.92;;
55756;SDS011;41676;44.610;44.078;2023-05-07T22:01:06;8.55;;;1.85;;
55756;SDS011;41676;44.610;44.078;2023-05-07T22:06:11;11.82;;;2.13;;
55756;SDS011;41676;44.610;44.078;2023-05-07T22:11:12;15.38;;;2.15;;
55756;SDS011;41676;44.610;44.078;2023-05-07T22:16:13;12.07;;;2.42;;
55756;SDS011;41676;44.610;44.078;2023-05-07T22:21:14;16.00;;;2.40;;
55756;SDS011;41676;44.610;44.078;2023-05-07T22:26:14;9.45;;;1.83;;
55756;SDS011;41676;44.610;44.078;2023-05-07T22:31:15;8.00;;;2.30;;
55756;SDS011;41676;44.610;44.078;2023-05-07T22:36:16;12.23;;;2.53;;
55756;SDS011;41676;44.610;44.078;2023-05-07T22:41:17;11.02;;;2.58;;
55756;SDS011;41676;44.610;44.078;2023-05-07T22:46:18;14.68;;;2.83;;
55756;SDS011;41676;44.610;44.078;2023-05-07T22:51:18;16.00;;;2.60;;
55756;SDS011;41676;44.610;44.078;2023-05-07T22:56:19;14.43;;;2.60;;
55756;SDS011;41676;44.610;44.078;2023-05-07T23:01:20;6.93;;;2.08;;
55756;SDS011;41676;44.610;44.078;2023-05-07T23:06:20;11.20;;;2.40;;
55756;SDS011;41676;44.610;44.078;2023-05-07T23:11:21;9.88;;;2.35;;
55756;SDS011;41676;44.610;44.078;2023-05-07T23:16:22;11.88;;;2.10;;
55756;SDS011;41676;44.610;44.078;2023-05-07T23:21:23;9.30;;;2.00;;
55756;SDS011;41676;44.610;44.078;2023-05-07T23:26:26;9.90;;;2.88;;
55756;SDS011;41676;44.610;44.078;2023-05-07T23:31:27;8.63;;;2.92;;
55756;SDS011;41676;44.610;44.078;2023-05-07T23:36:28;9.32;;;2.20;;
55756;SDS011;41676;44.610;44.078;2023-05-07T23:41:30;9.10;;;2.33;;
55756;SDS011;41676;44.610;44.078;2023-05-07T23:46:31;13.85;;;2.85;;
55756;SDS011;41676;44.610;44.078;2023-05-07T23:51:32;8.52;;;2.40;;
55756;SDS011;41676;44.610;44.078;2023-05-07T23:56:33;13.88;;;2.90;;
